Terminal Aerodrome Forecast
Issued by NWS

Home | Current Version | Previous Version | Graphics & Text | Print | Product List | Glossary On
Versions: 1 2 3 4 5 6 7 8 9 10 11 12 13 14 15 16 17 18 19 20 21 22 23 24 25 26 27 28 29 30 31 32 33 34
000
FTUS43 KLOT 030900 AAA
TAFORD
TAF AMD
KORD 030907Z 0309/0412 15008KT P6SM VCSH SCT045 OVC060
     FM031000 15010KT P6SM -SN OVC045
      TEMPO 0310/0311 3SM -SNPL OVC030
     FM031100 15011KT 1 1/2SM -SN BR BKN010 OVC030
     FM031300 16012KT 1SM -PLSN BR OVC007
     FM031500 17015G21KT 2SM -FZRAPL BR OVC004
     FM031800 21015G22KT 5SM -DZ BR OVC006
     FM032200 25014G22KT P6SM OVC015
     FM040200 28014G21KT P6SM OVC025=

USA.gov is the U.S. government's official web portal to all federal, state and local government web resources and services.